createdAt,value
2023-01-28T00:00:13.613Z,53.90
2023-01-28T00:03:03.192Z,54.70
2023-01-28T00:05:32.422Z,54.10
2023-01-28T00:08:01.764Z,45.10
2023-01-28T00:10:30.920Z,59.50
2023-01-28T00:12:59.888Z,67.50
2023-01-28T00:15:29.253Z,58.20
2023-01-28T00:17:58.659Z,56.60
2023-01-28T00:20:27.761Z,49.80
2023-01-28T00:22:57.248Z,46.30
2023-01-28T00:25:26.280Z,54.10
2023-01-28T00:27:55.981Z,51.10
2023-01-28T00:30:25.174Z,53.80
2023-01-28T00:32:56.409Z,58.30
2023-01-28T00:35:25.345Z,49.20
2023-01-28T00:37:54.811Z,53.50
2023-01-28T00:40:23.635Z,49.30
2023-01-28T00:42:53.974Z,52.30
2023-01-28T00:45:23.538Z,49.70
2023-01-28T00:47:52.941Z,47.40
2023-01-28T00:50:22.551Z,45.90
2023-01-28T00:52:51.680Z,62.80
2023-01-28T00:55:21.044Z,52.20
2023-01-28T00:57:50.963Z,54.20
2023-01-28T01:00:25.189Z,56.90
2023-01-28T01:02:54.385Z,59.20
2023-01-28T01:07:52.933Z,57.50
2023-01-28T01:10:22.209Z,59.50
2023-01-28T01:12:51.577Z,60.70
2023-01-28T01:15:22.826Z,55.90
2023-01-28T01:17:53.569Z,58.30
2023-01-28T01:20:24.939Z,62.20
2023-01-28T01:22:54.250Z,50.00
2023-01-28T01:25:23.349Z,49.20
2023-01-28T01:27:52.310Z,58.80
2023-01-28T01:30:21.928Z,71.50
2023-01-28T01:32:51.209Z,66.00
2023-01-28T01:35:20.822Z,71.90
2023-01-28T01:37:49.806Z,57.20
2023-01-28T01:40:19.248Z,63.70
2023-01-28T01:42:48.352Z,52.50
2023-01-28T01:45:18.318Z,54.40
2023-01-28T01:47:54.403Z,52.40
2023-01-28T01:50:29.652Z,53.20
2023-01-28T01:53:03.073Z,50.90
2023-01-28T01:55:38.402Z,43.10
2023-01-28T01:58:11.701Z,51.40
2023-01-28T02:00:42.359Z,51.80
2023-01-28T02:03:12.683Z,50.30
2023-01-28T02:05:41.778Z,56.80
2023-01-28T02:08:20.996Z,54.10
2023-01-28T02:10:53.230Z,52.80
2023-01-28T02:13:29.105Z,44.40
2023-01-28T02:16:01.093Z,40.50
2023-01-28T02:18:30.703Z,39.00
2023-01-28T02:21:31.139Z,42.10
2023-01-28T02:24:19.358Z,41.60
2023-01-28T02:27:15.228Z,37.40
2023-01-28T02:29:54.903Z,35.30
2023-01-28T02:32:29.830Z,40.90
2023-01-28T02:35:07.062Z,44.10
2023-01-28T02:37:44.761Z,35.70
2023-01-28T02:40:19.802Z,46.10
2023-01-28T02:42:49.565Z,44.10
2023-01-28T02:45:23.025Z,49.40
2023-01-28T02:47:58.980Z,37.30
2023-01-28T02:50:38.200Z,29.60
2023-01-28T02:53:38.648Z,42.60
2023-01-28T02:56:20.546Z,49.90
2023-01-28T02:59:21.016Z,48.10
2023-01-28T03:01:57.821Z,41.80
2023-01-28T03:04:32.727Z,36.60
2023-01-28T03:07:07.675Z,33.50
2023-01-28T03:09:39.335Z,36.30
2023-01-28T03:12:31.140Z,36.20
2023-01-28T03:15:22.277Z,35.80
2023-01-28T03:18:16.387Z,34.90
2023-01-28T03:21:08.340Z,35.00
2023-01-28T03:24:06.071Z,35.10
2023-01-28T03:27:01.266Z,33.80
2023-01-28T03:29:51.958Z,34.00
2023-01-28T03:32:41.468Z,36.30
2023-01-28T03:35:32.686Z,31.00
2023-01-28T03:38:17.982Z,33.60
2023-01-28T03:40:52.365Z,31.30
2023-01-28T03:43:22.778Z,31.40
2023-01-28T03:45:53.147Z,35.80
2023-01-28T03:48:24.864Z,32.20
2023-01-28T03:50:54.976Z,39.60
2023-01-28T03:53:25.103Z,38.00
2023-01-28T03:55:56.181Z,36.90
2023-01-28T03:58:26.568Z,32.20
2023-01-28T04:00:56.384Z,37.70
2023-01-28T04:03:25.640Z,40.00
2023-01-28T04:06:10.141Z,42.30
2023-01-28T04:08:58.994Z,36.50
2023-01-28T04:12:04.331Z,32.80
2023-01-28T04:14:39.482Z,29.70
2023-01-28T04:17:26.549Z,27.70
2023-01-28T04:19:56.210Z,25.70
2023-01-28T04:22:25.469Z,25.90
2023-01-28T04:24:54.466Z,23.90
2023-01-28T04:27:24.163Z,21.20
2023-01-28T04:29:53.002Z,21.90
2023-01-28T04:32:34.595Z,21.10
2023-01-28T04:35:21.816Z,20.10
2023-01-28T04:38:17.579Z,23.70
2023-01-28T04:40:56.812Z,22.80
2023-01-28T04:43:29.340Z,23.60
2023-01-28T04:46:21.428Z,23.50
2023-01-28T04:49:04.813Z,20.40
2023-01-28T04:51:42.613Z,20.10
2023-01-28T04:54:23.547Z,21.40
2023-01-28T04:56:55.869Z,24.30
2023-01-28T04:59:25.177Z,22.70
2023-01-28T05:01:54.397Z,18.00
2023-01-28T05:04:24.367Z,23.90
2023-01-28T05:06:54.613Z,21.60
2023-01-28T05:09:28.205Z,17.60
2023-01-28T05:11:57.203Z,20.70
2023-01-28T05:14:26.609Z,16.50
2023-01-28T05:17:04.436Z,19.70
2023-01-28T05:22:04.949Z,16.40
2023-01-28T05:24:41.248Z,19.30
2023-01-28T05:27:10.036Z,18.10
2023-01-28T05:29:38.999Z,16.00
2023-01-28T05:32:08.567Z,13.10
2023-01-28T05:34:37.833Z,17.10
2023-01-28T05:37:12.397Z,14.80
2023-01-28T05:39:41.449Z,16.00
2023-01-28T05:42:11.776Z,16.90
2023-01-28T05:44:47.172Z,16.10
2023-01-28T05:47:36.168Z,15.80
2023-01-28T05:50:25.689Z,18.40
2023-01-28T05:53:15.731Z,18.60
2023-01-28T05:55:49.905Z,18.40
2023-01-28T05:58:21.352Z,17.60
2023-01-28T06:00:50.588Z,16.00
2023-01-28T06:03:20.770Z,17.20
2023-01-28T06:05:50.323Z,22.20
2023-01-28T06:08:19.519Z,19.50
2023-01-28T06:10:48.683Z,21.10
2023-01-28T06:13:17.922Z,17.80
2023-01-28T06:16:06.887Z,17.50
2023-01-28T06:18:44.166Z,15.00
2023-01-28T06:21:13.491Z,22.70
2023-01-28T06:23:42.715Z,19.50
2023-01-28T06:26:11.566Z,16.90
2023-01-28T06:28:42.947Z,23.00
2023-01-28T06:31:12.220Z,25.60
2023-01-28T06:33:41.825Z,26.50
2023-01-28T06:36:11.132Z,33.90
2023-01-28T06:38:40.122Z,44.30
2023-01-28T06:41:09.316Z,56.70
2023-01-28T06:43:38.510Z,76.20
2023-01-28T06:46:07.439Z,73.00
2023-01-28T06:48:37.355Z,70.00
2023-01-28T06:51:06.624Z,70.30
2023-01-28T06:53:35.713Z,80.40
2023-01-28T06:56:06.196Z,55.00
2023-01-28T06:58:36.568Z,46.10
2023-01-28T07:01:06.230Z,31.70
2023-01-28T07:03:36.340Z,29.50
2023-01-28T07:06:06.150Z,25.20
2023-01-28T07:08:35.177Z,26.90
2023-01-28T07:11:04.871Z,27.20
2023-01-28T07:13:34.038Z,28.00
2023-01-28T07:16:04.001Z,29.00
2023-01-28T07:18:33.154Z,28.10
2023-01-28T07:21:02.903Z,22.80
2023-01-28T07:23:32.160Z,24.20
2023-01-28T07:26:03.939Z,24.50
2023-01-28T07:28:33.344Z,19.50
2023-01-28T07:31:02.385Z,18.30
2023-01-28T07:33:31.738Z,17.00
2023-01-28T07:36:00.712Z,23.80
2023-01-28T07:38:30.120Z,20.30
2023-01-28T07:40:59.201Z,23.20
2023-01-28T07:43:28.447Z,23.50
2023-01-28T07:46:00.092Z,26.30
2023-01-28T07:48:30.227Z,50.10
2023-01-28T07:51:01.020Z,42.60
2023-01-28T07:53:30.723Z,43.60
2023-01-28T07:56:01.521Z,62.40
2023-01-28T07:58:32.051Z,52.80
2023-01-28T08:01:02.053Z,69.00
2023-01-28T08:03:30.970Z,49.70
2023-01-28T08:06:00.132Z,73.30
2023-01-28T08:08:29.206Z,126.30
2023-01-28T08:10:58.153Z,83.90
2023-01-28T08:13:27.310Z,76.10
2023-01-28T08:15:58.967Z,68.40
2023-01-28T08:18:27.934Z,62.80
2023-01-28T08:20:59.393Z,82.30
2023-01-28T08:23:30.150Z,81.70
2023-01-28T08:26:00.882Z,37.60
2023-01-28T08:28:30.015Z,24.70
2023-01-28T08:31:02.105Z,22.10
2023-01-28T08:33:31.737Z,22.40
2023-01-28T08:36:03.939Z,26.50
2023-01-28T08:38:33.295Z,22.20
2023-01-28T08:41:02.370Z,22.00
2023-01-28T08:43:31.242Z,23.40
2023-01-28T08:46:00.942Z,30.30
2023-01-28T08:48:31.163Z,31.30
2023-01-28T08:53:28.744Z,68.40
2023-01-28T08:55:58.279Z,45.20
2023-01-28T08:58:27.402Z,30.90
2023-01-28T09:00:56.407Z,28.90
2023-01-28T09:03:26.133Z,18.40
2023-01-28T09:05:59.717Z,19.70
2023-01-28T09:08:28.612Z,24.20
2023-01-28T09:10:58.124Z,37.00
2023-01-28T09:15:56.962Z,28.40
2023-01-28T09:18:26.124Z,25.10
2023-01-28T09:20:55.380Z,28.10
2023-01-28T09:23:24.728Z,30.60
2023-01-28T09:26:02.535Z,24.80
2023-01-28T09:28:32.155Z,25.60
2023-01-28T09:31:06.046Z,23.60
2023-01-28T09:33:37.341Z,29.70
2023-01-28T09:36:09.103Z,46.20
2023-01-28T09:38:38.514Z,46.50
2023-01-28T09:41:23.959Z,34.90
2023-01-28T09:44:05.792Z,30.20
2023-01-28T09:46:37.686Z,20.90
2023-01-28T09:49:17.495Z,20.80
2023-01-28T09:51:52.619Z,28.90
2023-01-28T09:54:29.630Z,26.00
2023-01-28T09:57:06.762Z,30.30
2023-01-28T09:59:36.913Z,21.90
2023-01-28T10:02:33.138Z,18.90
2023-01-28T10:05:17.581Z,33.00
2023-01-28T10:07:57.436Z,19.40
2023-01-28T10:10:32.853Z,17.50
2023-01-28T10:13:27.906Z,19.10
2023-01-28T10:16:16.386Z,17.90
2023-01-28T10:18:50.767Z,18.50
2023-01-28T10:21:25.779Z,20.00
2023-01-28T10:24:01.748Z,22.50
2023-01-28T10:26:35.527Z,18.70
2023-01-28T10:29:12.203Z,17.00
2023-01-28T10:31:54.341Z,16.80
2023-01-28T10:34:24.224Z,18.70
2023-01-28T10:36:55.256Z,27.90
2023-01-28T10:39:26.441Z,19.50
2023-01-28T10:41:58.864Z,29.70
2023-01-28T10:44:36.262Z,32.90
2023-01-28T10:47:14.996Z,25.50
2023-01-28T10:49:53.114Z,23.30
2023-01-28T10:52:23.554Z,26.50
2023-01-28T10:55:02.113Z,16.00
2023-01-28T10:57:33.195Z,28.00
2023-01-28T11:00:22.565Z,21.00
2023-01-28T11:02:52.587Z,26.60
2023-01-28T11:05:25.210Z,17.20
2023-01-28T11:08:06.392Z,20.20
2023-01-28T11:10:37.854Z,34.70
2023-01-28T11:13:17.120Z,43.00
2023-01-28T11:15:50.934Z,34.20
2023-01-28T11:18:24.350Z,25.30
2023-01-28T11:20:58.349Z,29.90
2023-01-28T11:23:29.907Z,20.70
2023-01-28T11:26:05.864Z,23.70
2023-01-28T11:28:40.386Z,31.80
2023-01-28T11:31:13.349Z,20.10
2023-01-28T11:33:49.220Z,29.50
2023-01-28T11:36:19.673Z,53.90
2023-01-28T11:38:52.401Z,37.70
2023-01-28T11:41:28.075Z,36.70
2023-01-28T11:43:58.232Z,58.00
2023-01-28T11:46:53.140Z,40.10
2023-01-28T11:49:35.241Z,33.30
2023-01-28T11:52:18.324Z,18.00
2023-01-28T11:57:34.144Z,18.60
2023-01-28T12:00:30.992Z,15.50
2023-01-28T12:03:17.365Z,22.70
2023-01-28T12:05:51.311Z,23.90
2023-01-28T12:08:24.732Z,23.30
2023-01-28T12:11:09.339Z,28.70
2023-01-28T12:13:55.804Z,21.00
2023-01-28T12:16:48.720Z,22.10
2023-01-28T12:19:38.475Z,18.00
2023-01-28T12:22:23.583Z,92.90
2023-01-28T12:25:19.508Z,109.40
2023-01-28T12:27:58.933Z,83.20
2023-01-28T12:30:42.718Z,166.70
2023-01-28T12:33:50.646Z,104.50
2023-01-28T12:36:37.659Z,132.90
2023-01-28T12:39:19.596Z,89.10
2023-01-28T12:41:54.488Z,74.10
2023-01-28T12:44:29.032Z,74.60
2023-01-28T12:47:04.298Z,49.00
2023-01-28T12:49:40.023Z,64.20
2023-01-28T12:52:15.864Z,69.00
2023-01-28T12:54:56.180Z,49.30
2023-01-28T12:57:27.878Z,52.90
2023-01-28T13:00:16.154Z,24.90
2023-01-28T13:05:21.050Z,42.90
2023-01-28T13:07:55.841Z,32.40
2023-01-28T13:10:30.208Z,48.20
2023-01-28T13:13:00.705Z,37.40
2023-01-28T13:15:31.220Z,43.90
2023-01-28T13:20:36.590Z,31.10
2023-01-28T13:23:21.667Z,30.10
2023-01-28T13:25:52.947Z,28.90
2023-01-28T13:28:31.310Z,36.80
2023-01-28T13:31:06.561Z,30.70
2023-01-28T13:33:38.251Z,29.30
2023-01-28T13:36:23.443Z,35.10
2023-01-28T13:39:02.906Z,37.50
2023-01-28T13:41:51.051Z,34.40
2023-01-28T13:44:29.396Z,36.60
2023-01-28T13:47:00.762Z,36.20
2023-01-28T13:49:38.143Z,33.80
2023-01-28T13:52:16.950Z,29.40
2023-01-28T13:54:51.992Z,36.80
2023-01-28T13:58:07.790Z,28.10
2023-01-28T14:00:47.687Z,27.80
2023-01-28T14:03:53.498Z,32.50
2023-01-28T14:06:53.326Z,36.10
2023-01-28T14:09:36.345Z,28.40
2023-01-28T14:12:36.978Z,24.00
2023-01-28T14:15:22.536Z,27.70
2023-01-28T14:17:54.895Z,35.60
2023-01-28T14:20:30.852Z,36.80
2023-01-28T14:23:04.706Z,27.70
2023-01-28T14:25:46.665Z,31.00
2023-01-28T14:28:21.211Z,30.60
2023-01-28T14:30:56.697Z,27.20
2023-01-28T14:33:27.701Z,25.60
2023-01-28T14:35:58.459Z,29.70
2023-01-28T14:38:28.117Z,30.70
2023-01-28T14:40:57.670Z,30.10
2023-01-28T14:43:28.191Z,31.50
2023-01-28T14:46:12.582Z,34.90
2023-01-28T14:48:49.535Z,31.90
2023-01-28T14:51:49.651Z,33.90
2023-01-28T14:54:49.795Z,33.60
2023-01-28T14:57:39.014Z,31.40
2023-01-28T15:00:20.446Z,34.80
2023-01-28T15:02:50.682Z,27.70
2023-01-28T15:07:53.007Z,31.00
2023-01-28T15:10:28.696Z,29.60
2023-01-28T15:13:04.022Z,28.80
2023-01-28T15:15:37.773Z,54.50
2023-01-28T15:18:14.533Z,44.00
2023-01-28T15:20:48.644Z,42.50
2023-01-28T15:23:23.346Z,53.20
2023-01-28T15:25:55.549Z,50.10
2023-01-28T15:28:30.142Z,48.00
2023-01-28T15:30:59.764Z,49.00
2023-01-28T15:33:30.228Z,72.80
2023-01-28T15:38:29.431Z,93.00
2023-01-28T15:41:00.852Z,103.00
2023-01-28T15:43:33.576Z,101.70
2023-01-28T15:46:04.074Z,65.70
2023-01-28T15:48:36.651Z,98.80
2023-01-28T15:51:08.604Z,68.10
2023-01-28T15:53:44.699Z,61.50
2023-01-28T15:58:45.818Z,88.00
2023-01-28T16:01:18.512Z,122.00
2023-01-28T16:04:00.946Z,79.70
2023-01-28T16:06:36.642Z,168.40
2023-01-28T16:09:15.251Z,229.60
2023-01-28T16:11:44.596Z,123.90
2023-01-28T16:14:24.914Z,65.30
2023-01-28T16:16:56.681Z,74.40
2023-01-28T16:19:37.965Z,41.30
2023-01-28T16:22:08.248Z,41.50
2023-01-28T16:24:48.029Z,58.40
2023-01-28T16:27:22.957Z,46.40
2023-01-28T16:29:52.479Z,50.60
2023-01-28T16:32:39.925Z,37.40
2023-01-28T16:35:15.406Z,33.00
2023-01-28T16:37:45.009Z,33.00
2023-01-28T16:40:17.383Z,36.50
2023-01-28T16:42:48.504Z,37.70
2023-01-28T16:45:20.514Z,38.70
2023-01-28T16:47:50.553Z,58.40
2023-01-28T16:50:21.502Z,50.40
2023-01-28T16:52:53.933Z,36.90
2023-01-28T16:55:23.808Z,56.10
2023-01-28T17:00:25.825Z,111.60
2023-01-28T17:02:55.948Z,138.60
2023-01-28T17:05:26.333Z,131.10
2023-01-28T17:07:58.778Z,183.80
2023-01-28T17:10:27.839Z,155.60
2023-01-28T17:12:58.314Z,110.00
2023-01-28T17:15:27.406Z,155.30
2023-01-28T17:17:57.010Z,151.50
2023-01-28T17:20:26.526Z,120.80
2023-01-28T17:22:56.069Z,125.60
2023-01-28T17:25:25.381Z,80.40
2023-01-28T17:27:54.326Z,103.40
2023-01-28T17:30:23.971Z,66.50
2023-01-28T17:32:54.117Z,73.30
2023-01-28T17:35:23.000Z,79.30
2023-01-28T17:37:54.492Z,52.00
2023-01-28T17:40:24.319Z,74.00
2023-01-28T17:42:54.270Z,53.40
2023-01-28T17:45:24.132Z,37.00
2023-01-28T17:47:53.953Z,38.20
2023-01-28T17:50:22.995Z,34.10
2023-01-28T17:52:55.632Z,38.60
2023-01-28T17:55:25.689Z,27.50
2023-01-28T17:57:54.892Z,31.00
2023-01-28T18:00:26.295Z,42.80
2023-01-28T18:02:56.348Z,72.90
2023-01-28T18:05:25.738Z,79.30
2023-01-28T18:07:54.875Z,107.00
2023-01-28T18:10:24.273Z,70.80
2023-01-28T18:12:53.854Z,59.90
2023-01-28T18:15:24.315Z,49.70
2023-01-28T18:17:54.015Z,36.10
2023-01-28T18:20:23.425Z,28.10
2023-01-28T18:22:52.691Z,31.20
2023-01-28T18:25:22.175Z,31.70
2023-01-28T18:27:53.259Z,29.30
2023-01-28T18:30:22.904Z,24.20
2023-01-28T18:32:53.403Z,21.30
2023-01-28T18:35:22.600Z,122.60
2023-01-28T18:37:52.176Z,176.40
2023-01-28T18:40:21.604Z,274.00
2023-01-28T18:42:50.617Z,244.00
2023-01-28T18:45:22.190Z,338.50
2023-01-28T18:47:51.287Z,206.00
2023-01-28T18:50:20.670Z,232.10
2023-01-28T18:52:50.389Z,200.20
2023-01-28T18:55:21.501Z,234.70
2023-01-28T18:57:50.581Z,178.30
2023-01-28T19:00:21.018Z,103.40
2023-01-28T19:02:50.980Z,98.90
2023-01-28T19:05:20.531Z,110.60
2023-01-28T19:07:49.687Z,78.80
2023-01-28T19:10:19.449Z,101.70
2023-01-28T19:12:49.149Z,116.80
2023-01-28T19:15:18.524Z,113.00
2023-01-28T19:17:48.103Z,146.70
2023-01-28T19:20:18.902Z,151.50
2023-01-28T19:22:47.714Z,146.50
2023-01-28T19:25:17.721Z,66.20
2023-01-28T19:27:47.112Z,73.40
2023-01-28T19:30:17.335Z,39.00
2023-01-28T19:32:46.736Z,46.60
2023-01-28T19:35:16.883Z,35.40
2023-01-28T19:37:46.588Z,27.50
2023-01-28T19:40:16.739Z,22.60
2023-01-28T19:42:45.945Z,22.90
2023-01-28T19:45:15.582Z,19.20
2023-01-28T19:47:45.102Z,23.30
2023-01-28T19:50:14.989Z,21.90
2023-01-28T19:52:44.124Z,29.40
2023-01-28T19:55:13.304Z,26.30
2023-01-28T19:57:44.156Z,27.00
2023-01-28T20:00:15.019Z,20.10
2023-01-28T20:02:44.936Z,15.00
2023-01-28T20:05:14.711Z,16.50
2023-01-28T20:07:44.170Z,20.10
2023-01-28T20:10:13.486Z,18.00
2023-01-28T20:12:43.603Z,13.50
2023-01-28T20:15:13.467Z,21.80
2023-01-28T20:17:42.811Z,19.70
2023-01-28T20:20:13.208Z,17.90
2023-01-28T20:22:42.860Z,16.70
2023-01-28T20:25:11.954Z,18.00
2023-01-28T20:27:40.929Z,18.30
2023-01-28T20:30:12.601Z,15.70
2023-01-28T20:32:42.065Z,16.10
2023-01-28T20:35:11.400Z,16.90
2023-01-28T20:37:40.707Z,20.80
2023-01-28T20:40:12.564Z,17.60
2023-01-28T20:42:41.819Z,18.40
2023-01-28T20:45:11.305Z,14.80
2023-01-28T20:47:40.160Z,11.80
2023-01-28T20:50:11.049Z,16.70
2023-01-28T20:53:15.480Z,18.70
2023-01-28T20:55:57.890Z,16.10
2023-01-28T20:58:27.603Z,14.40
2023-01-28T21:00:57.010Z,12.80
2023-01-28T21:03:26.207Z,15.70
2023-01-28T21:05:55.608Z,19.50
2023-01-28T21:08:24.739Z,17.10
2023-01-28T21:10:54.553Z,16.80
2023-01-28T21:13:23.553Z,14.60
2023-01-28T21:15:54.816Z,14.20
2023-01-28T21:18:24.698Z,17.50
2023-01-28T21:20:54.547Z,18.20
2023-01-28T21:23:25.151Z,17.70
2023-01-28T21:25:54.346Z,15.80
2023-01-28T21:28:23.448Z,15.10
2023-01-28T21:30:52.528Z,16.70
2023-01-28T21:33:22.581Z,16.70
2023-01-28T21:35:51.473Z,13.70
2023-01-28T21:38:21.476Z,9.40
2023-01-28T21:40:50.670Z,11.70
2023-01-28T21:43:19.965Z,12.90
2023-01-28T21:45:56.993Z,12.70
2023-01-28T21:48:27.104Z,14.10
2023-01-28T21:51:14.612Z,11.10
2023-01-28T21:53:43.714Z,10.50
2023-01-28T21:56:13.201Z,10.60
2023-01-28T21:59:00.957Z,12.20
2023-01-28T22:01:30.793Z,10.50
2023-01-28T22:03:59.853Z,10.80
2023-01-28T22:06:29.650Z,25.90
2023-01-28T22:08:59.038Z,39.70
2023-01-28T22:11:28.085Z,58.50
2023-01-28T22:13:57.563Z,27.80
2023-01-28T22:16:26.533Z,111.60
2023-01-28T22:18:55.738Z,87.00
2023-01-28T22:21:24.961Z,43.70
2023-01-28T22:23:54.480Z,68.40
2023-01-28T22:26:24.288Z,81.70
2023-01-28T22:28:53.466Z,82.50
2023-01-28T22:31:23.551Z,65.10
2023-01-28T22:33:52.602Z,69.70
2023-01-28T22:36:21.688Z,147.20
2023-01-28T22:38:50.995Z,52.30
2023-01-28T22:41:22.680Z,98.60
2023-01-28T22:43:52.768Z,45.40
2023-01-28T22:48:52.233Z,22.70
2023-01-28T22:51:23.356Z,47.50
2023-01-28T22:53:53.038Z,59.80
2023-01-28T22:56:25.011Z,20.60
2023-01-28T22:58:56.848Z,17.10
2023-01-28T23:01:26.094Z,35.00
2023-01-28T23:03:56.091Z,27.00
2023-01-28T23:06:27.892Z,35.40
2023-01-28T23:08:57.405Z,23.70
2023-01-28T23:11:26.951Z,47.90
2023-01-28T23:14:16.649Z,41.40
2023-01-28T23:17:04.871Z,24.60
2023-01-28T23:19:53.111Z,59.30
2023-01-28T23:22:44.821Z,55.60
2023-01-28T23:25:14.429Z,18.20
2023-01-28T23:27:43.633Z,44.50
2023-01-28T23:30:14.812Z,38.80
2023-01-28T23:32:47.677Z,39.20
2023-01-28T23:35:18.373Z,21.50
2023-01-28T23:37:47.264Z,15.70
2023-01-28T23:40:17.635Z,25.20
2023-01-28T23:42:49.957Z,30.20
2023-01-28T23:45:20.085Z,17.50
2023-01-28T23:47:49.692Z,18.10
2023-01-28T23:50:19.549Z,17.30
2023-01-28T23:52:48.645Z,18.80
2023-01-28T23:55:17.758Z,20.30
2023-01-28T23:57:47.057Z,20.60
